Time;durP1;ratioP1;P1;durP2;ratioP2;P2;SDS_P1;SDS_P2;PMS_P1;PMS_P2;Temp;Humidity;BMP_temperature;BMP_pressure;BME280_temperature;BME280_humidity;BME280_pressure;Samples;Min_cycle;Max_cycle;Signal;HPM_P1;HPM_P2
2023/01/15 03:22:32;;;;;;;;;;;;;;;;;;5078824;27;19962;-64
2023/01/15 03:24:58;;;;;;;;;;;;;;;;;;5060965;28;20296;-63
2023/01/15 03:27:24;;;;;;;;;;;;;;;;;;5059559;28;20408;-64
2023/01/15 03:29:50;;;;;;;;;;;;;;;;;;5065578;28;19912;-65
2023/01/15 03:32:15;;;;;;;;;;;;;;;;;;5066106;28;19936;-64
2023/01/15 03:34:41;;;;;;;;;;;;;;;;;;5065923;28;19921;-64
2023/01/15 03:37:07;;;;;;;;;;;;;;;;;;5064963;28;20411;-63
2023/01/15 03:39:33;;;;;;;;;;;;;;;;;;5066185;28;20457;-63
2023/01/15 03:41:59;;;;;;;;;;;;;;;;;;5065454;28;19921;-63
2023/01/15 03:44:25;;;;;;;;;;;;;;;;;;5065143;28;20404;-63
2023/01/15 03:46:51;;;;;;;;;;;;;;;;;;5080673;28;20031;-63
2023/01/15 03:49:17;;;;;;;;;;;;;;;;;;5059088;28;19913;-63
2023/01/15 03:51:43;;;;;;;;;;;;;;;;;;5046019;28;20011;-64
2023/01/15 03:54:08;;;;;;;;;;;;;;;;;;5046443;28;19917;-63
2023/01/15 03:56:34;;;;;;;;;;;;;;;;;;5046043;28;20301;-63
2023/01/15 03:59:00;;;;;;;;;;;;;;;;;;5052416;28;19999;-63
2023/01/15 04:01:26;;;;;;;;;;;;;;;;;;5045946;28;20308;-63
2023/01/15 04:03:52;;;;;;;;;;;;;;;;;;5046188;28;19920;-64
2023/01/15 04:06:18;;;;;;;;;;;;;;;;;;5055854;28;19913;-64
2023/01/15 04:08:44;;;;;;;;;;;;;;;;;;5046496;28;20480;-64
2023/01/15 04:11:10;;;;;;;;;;;;;;;;;;5045673;28;19970;-62
2023/01/15 04:13:35;;;;;;;;;;;;;;;;;;5051033;28;19913;-64
2023/01/15 04:16:01;;;;;;;;;;;;;;;;;;5064770;28;19920;-63
2023/01/15 04:18:27;;;;;;;;;;;;;;;;;;5057597;28;19909;-64
2023/01/15 04:20:54;;;;;;;;;;;;;;;;;;5062650;28;19924;-62
2023/01/15 04:23:20;;;;;;;;;;;;;;;;;;5060102;28;19966;-63
2023/01/15 04:25:46;;;;;;;;;;;;;;;;;;5051715;28;20020;-63
2023/01/15 04:28:14;;;;;;;;;;;;;;;;;;5056253;28;20403;-63
2023/01/15 04:30:42;;;;;;;;;;;;;;;;;;5056233;28;19992;-63
2023/01/15 04:33:08;;;;;;;;;;;;;;;;;;5053030;28;19920;-63
2023/01/15 04:35:34;;;;;;;;;;;;;;;;;;5051159;28;19921;-63
2023/01/15 04:38:00;;;;;;;;;;;;;;;;;;5051320;28;19912;-62
2023/01/15 04:45:56;;;;;;;;;;;;;;;;;;5033053;28;19994;-63
2023/01/15 04:48:22;;;;;;;;;;;;;;;;;;5051432;28;20342;-63
2023/01/15 04:50:47;;;;;;;;;;;;;;;;;;5050858;28;19921;-64
2023/01/15 04:53:13;;;;;;;;;;;;;;;;;;5050606;28;20436;-64
2023/01/15 04:55:39;;;;;;;;;;;;;;;;;;5051100;28;19955;-65
2023/01/15 04:58:05;;;;;;;;;;;;;;;;;;5050600;28;19913;-64
2023/01/15 05:00:31;;;;;;;;;;;;;;;;;;5050773;28;20004;-64
2023/01/15 05:02:57;;;;;;;;;;;;;;;;;;5051102;28;19913;-64
2023/01/15 05:05:23;;;;;;;;;;;;;;;;;;5050514;28;19912;-65
2023/01/15 05:07:49;;;;;;;;;;;;;;;;;;5045059;28;19958;-64
2023/01/15 05:10:15;;;;;;;;;;;;;;;;;;5044071;28;19951;-65
2023/01/15 05:12:40;;;;;;;;;;;;;;;;;;5035767;28;19917;-65
2023/01/15 05:15:06;;;;;;;;;;;;;;;;;;5031088;28;19909;-65
2023/01/15 05:17:32;;;;;;;;;;;;;;;;;;5035933;28;19921;-66
2023/01/15 05:19:58;;;;;;;;;;;;;;;;;;5033392;28;20332;-65
2023/01/15 05:22:24;;;;;;;;;;;;;;;;;;5031315;28;20412;-65
2023/01/15 05:24:50;;;;;;;;;;;;;;;;;;5031369;28;20012;-65
2023/01/15 05:27:16;;;;;;;;;;;;;;;;;;5032429;28;19914;-65
2023/01/15 05:29:42;;;;;;;;;;;;;;;;;;5031074;28;19913;-66
2023/01/15 05:32:07;;;;;;;;;;;;;;;;;;5040400;28;20691;-64
2023/01/15 05:34:33;;;;;;;;;;;;;;;;;;5046878;28;19913;-64
2023/01/15 05:36:59;;;;;;;;;;;;;;;;;;5050247;28;20297;-64
2023/01/15 05:39:25;;;;;;;;;;;;;;;;;;5050026;28;19916;-64
2023/01/15 05:41:52;;;;;;;;;;;;;;;;;;5050100;28;20280;-64
2023/01/15 05:44:17;;;;;;;;;;;;;;;;;;5040906;28;20326;-65
2023/01/15 05:46:43;;;;;;;;;;;;;;;;;;5030861;28;19960;-63
2023/01/15 05:49:09;;;;;;;;;;;;;;;;;;5030969;28;20378;-64
2023/01/15 05:51:35;;;;;;;;;;;;;;;;;;5030939;28;20373;-63
2023/01/15 05:54:01;;;;;;;;;;;;;;;;;;5030889;28;19963;-64
2023/01/15 05:56:27;;;;;;;;;;;;;;;;;;5030580;28;19913;-65
2023/01/15 05:58:53;;;;;;;;;;;;;;;;;;5037015;28;19959;-64
2023/01/15 06:01:19;;;;;;;;;;;;;;;;;;5030224;28;19917;-65
2023/01/15 06:03:47;;;;;;;;;;;;;;;;;;5030355;28;19920;-64
2023/01/15 06:06:12;;;;;;;;;;;;;;;;;;5030038;28;19913;-66
2023/01/15 06:08:38;;;;;;;;;;;;;;;;;;5036482;28;20004;-65
2023/01/15 06:11:06;;;;;;;;;;;;;;;;;;5042231;28;19978;-63
2023/01/15 06:13:31;;;;;;;;;;;;;;;;;;5043439;28;20338;-65
2023/01/15 06:15:57;;;;;;;;;;;;;;;;;;5035780;28;19992;-65
2023/01/15 06:18:23;;;;;;;;;;;;;;;;;;5037327;28;19960;-65
2023/01/15 06:20:49;;;;;;;;;;;;;;;;;;5030162;28;19928;-64
2023/01/15 06:23:15;;;;;;;;;;;;;;;;;;5047857;28;19912;-65
2023/01/15 06:25:41;;;;;;;;;;;;;;;;;;5049400;28;19909;-64
2023/01/15 06:28:07;;;;;;;;;;;;;;;;;;5049069;28;20277;-64
2023/01/15 06:30:33;;;;;;;;;;;;;;;;;;5049032;28;20036;-64
2023/01/15 06:32:58;;;;;;;;;;;;;;;;;;5048626;28;19963;-65
2023/01/15 06:35:24;;;;;;;;;;;;;;;;;;5049158;28;19909;-65
2023/01/15 06:37:50;;;;;;;;;;;;;;;;;;5048885;28;20003;-64
2023/01/15 06:40:16;;;;;;;;;;;;;;;;;;5049214;28;19913;-65
2023/01/15 06:48:11;;;;;;;;;;;;;;;;;;5029679;28;20400;-65
2023/01/15 06:50:37;;;;;;;;;;;;;;;;;;5029604;28;20004;-65
2023/01/15 06:53:03;;;;;;;;;;;;;;;;;;5029229;28;19963;-65
2023/01/15 06:55:29;;;;;;;;;;;;;;;;;;5029800;28;19920;-65
2023/01/15 06:57:55;;;;;;;;;;;;;;;;;;5042156;28;19999;-65
2023/01/15 07:00:21;;;;;;;;;;;;;;;;;;5048691;28;19920;-65
2023/01/15 07:02:47;;;;;;;;;;;;;;;;;;5048935;28;20686;-65
2023/01/15 07:05:13;;;;;;;;;;;;;;;;;;5048469;28;19963;-64
2023/01/15 07:07:38;;;;;;;;;;;;;;;;;;5048583;28;20388;-65
2023/01/15 07:10:04;;;;;;;;;;;;;;;;;;5030749;28;19909;-66
2023/01/15 07:12:30;;;;;;;;;;;;;;;;;;5029196;28;20344;-65
2023/01/15 07:14:56;;;;;;;;;;;;;;;;;;5029189;28;19963;-66
2023/01/15 07:17:22;;;;;;;;;;;;;;;;;;5033155;28;19979;-65
2023/01/15 07:19:48;;;;;;;;;;;;;;;;;;5048753;28;20007;-66
2023/01/15 07:22:14;;;;;;;;;;;;;;;;;;5047906;28;20446;-65
2023/01/15 07:24:40;;;;;;;;;;;;;;;;;;5048142;28;19909;-64
2023/01/15 07:27:06;;;;;;;;;;;;;;;;;;5048050;28;19920;-65
2023/01/15 07:29:31;;;;;;;;;;;;;;;;;;5048097;28;19999;-65
2023/01/15 07:31:57;;;;;;;;;;;;;;;;;;5048227;28;19963;-64
2023/01/15 07:34:23;;;;;;;;;;;;;;;;;;5048150;28;19912;-65
2023/01/15 07:36:49;;;;;;;;;;;;;;;;;;5048520;28;19995;-66
2023/01/15 07:39:15;;;;;;;;;;;;;;;;;;5048271;28;20051;-65
2023/01/15 07:49:55;;;;;;;;;;;;;;;;;;5043196;28;19936;-65
2023/01/15 07:52:21;;;;;;;;;;;;;;;;;;5047843;28;20296;-65
2023/01/15 07:54:47;;;;;;;;;;;;;;;;;;5048340;28;19908;-65
2023/01/15 07:57:13;;;;;;;;;;;;;;;;;;5046507;28;20443;-64
2023/01/15 07:59:39;;;;;;;;;;;;;;;;;;5029020;28;19916;-64
2023/01/15 08:02:05;;;;;;;;;;;;;;;;;;5028491;28;19913;-65
2023/01/15 08:04:31;;;;;;;;;;;;;;;;;;5028225;28;20642;-65
2023/01/15 08:06:56;;;;;;;;;;;;;;;;;;5030655;28;20004;-65
2023/01/15 08:09:24;;;;;;;;;;;;;;;;;;5038421;28;19970;-66
2023/01/15 08:17:20;;;;;;;;;;;;;;;;;;5032088;28;19987;-66
2023/01/15 08:19:46;;;;;;;;;;;;;;;;;;5032137;28;19917;-66
2023/01/15 08:22:11;;;;;;;;;;;;;;;;;;5035821;28;20347;-66
2023/01/15 08:24:37;;;;;;;;;;;;;;;;;;5051243;28;19916;-66
2023/01/15 08:27:03;;;;;;;;;;;;;;;;;;5050684;28;20358;-65
2023/01/15 08:29:29;;;;;;;;;;;;;;;;;;5048631;28;20047;-65
2023/01/15 08:31:55;;;;;;;;;;;;;;;;;;5031844;28;19947;-66
2023/01/15 08:34:21;;;;;;;;;;;;;;;;;;5031955;28;20369;-65
2023/01/15 08:36:48;;;;;;;;;;;;;;;;;;5031635;28;19949;-65
2023/01/15 08:39:14;;;;;;;;;;;;;;;;;;5055430;28;20328;-66
2023/01/15 08:41:40;;;;;;;;;;;;;;;;;;5039657;28;19912;-66
2023/01/15 08:44:06;;;;;;;;;;;;;;;;;;5050780;28;19913;-66
2023/01/15 08:46:32;;;;;;;;;;;;;;;;;;5049290;28;20008;-67
2023/01/15 08:48:58;;;;;;;;;;;;;;;;;;5038601;28;20056;-66
2023/01/15 08:51:24;;;;;;;;;;;;;;;;;;5051003;28;19916;-67
2023/01/15 08:53:49;;;;;;;;;;;;;;;;;;5050422;28;19909;-66
2023/01/15 08:56:15;;;;;;;;;;;;;;;;;;5037519;28;20004;-67
2023/01/15 08:58:41;;;;;;;;;;;;;;;;;;5050170;28;20593;-65
2023/01/15 09:01:07;;;;;;;;;;;;;;;;;;5050511;28;19920;-65
2023/01/15 09:03:33;;;;;;;;;;;;;;;;;;5041959;28;19917;-65
2023/01/15 09:05:59;;;;;;;;;;;;;;;;;;5031290;28;19995;-64
2023/01/15 09:08:25;;;;;;;;;;;;;;;;;;5035389;28;20032;-65
2023/01/15 09:10:51;;;;;;;;;;;;;;;;;;5037755;28;19920;-65
2023/01/15 09:13:17;;;;;;;;;;;;;;;;;;5039987;28;19954;-65
2023/01/15 09:15:43;;;;;;;;;;;;;;;;;;5038126;28;20098;-65
2023/01/15 09:18:11;;;;;;;;;;;;;;;;;;5040108;28;20325;-66
2023/01/15 09:20:37;;;;;;;;;;;;;;;;;;5037452;28;19993;-66
2023/01/15 09:23:03;;;;;;;;;;;;;;;;;;5037538;28;20371;-64
2023/01/15 09:25:29;;;;;;;;;;;;;;;;;;5038186;28;19916;-65
2023/01/15 09:27:54;;;;;;;;;;;;;;;;;;5035982;28;20442;-65
2023/01/15 09:30:20;;;;;;;;;;;;;;;;;;5037486;28;19916;-63
2023/01/15 09:32:46;;;;;;;;;;;;;;;;;;5035987;28;20266;-67
2023/01/15 09:35:12;;;;;;;;;;;;;;;;;;5039113;28;20278;-61
2023/01/15 09:37:38;;;;;;;;;;;;;;;;;;5036664;28;19916;-62
2023/01/15 09:40:06;;;;;;;;;;;;;;;;;;5039046;28;19913;-64
2023/01/15 09:42:32;;;;;;;;;;;;;;;;;;5037320;28;20281;-64
2023/01/15 09:44:58;;;;;;;;;;;;;;;;;;5055313;28;20496;-65
2023/01/15 09:47:24;;;;;;;;;;;;;;;;;;5034626;28;20344;-65
2023/01/15 09:49:50;;;;;;;;;;;;;;;;;;5043936;28;20408;-64
2023/01/15 09:52:16;;;;;;;;;;;;;;;;;;5037410;28;19920;-61
2023/01/15 09:54:42;;;;;;;;;;;;;;;;;;5053269;28;19924;-65
2023/01/15 09:57:08;;;;;;;;;;;;;;;;;;5039710;28;19916;-62
2023/01/15 09:59:34;;;;;;;;;;;;;;;;;;5037017;28;19923;-66
2023/01/15 10:02:00;;;;;;;;;;;;;;;;;;5039827;28;19932;-65
2023/01/15 10:04:26;;;;;;;;;;;;;;;;;;5035824;28;19925;-66
2023/01/15 10:06:53;;;;;;;;;;;;;;;;;;5039173;28;20008;-63
2023/01/15 10:09:19;;;;;;;;;;;;;;;;;;5035524;28;19917;-65
2023/01/15 10:14:30;;;;;;;;;;;;;;;;;;5036460;28;19939;-64
2023/01/15 10:16:56;;;;;;;;;;;;;;;;;;5038666;28;20375;-63
2023/01/15 10:19:21;;;;;;;;;;;;;;;;;;5034413;28;19924;-64
2023/01/15 10:21:50;;;;;;;;;;;;;;;;;;5037595;28;19928;-63
2023/01/15 10:24:15;;;;;;;;;;;;;;;;;;5033674;28;19924;-65
2023/01/15 10:26:43;;;;;;;;;;;;;;;;;;5037809;28;19917;-65
2023/01/15 10:29:09;;;;;;;;;;;;;;;;;;5035625;28;19919;-65
2023/01/15 10:31:35;;;;;;;;;;;;;;;;;;5035141;28;20286;-65
2023/01/15 10:34:01;;;;;;;;;;;;;;;;;;5033968;28;19917;-64
2023/01/15 10:36:26;;;;;;;;;;;;;;;;;;5037755;28;19913;-65
2023/01/15 10:38:53;;;;;;;;;;;;;;;;;;5032589;28;20024;-65
2023/01/15 10:41:18;;;;;;;;;;;;;;;;;;5035164;28;19916;-65
2023/01/15 10:43:44;;;;;;;;;;;;;;;;;;5036833;28;19920;-64
2023/01/15 10:46:11;;;;;;;;;;;;;;;;;;5034391;28;19913;-66
2023/01/15 10:48:37;;;;;;;;;;;;;;;;;;5037579;28;20537;-62
2023/01/15 10:51:03;;;;;;;;;;;;;;;;;;5036304;28;19964;-63
2023/01/15 10:53:29;;;;;;;;;;;;;;;;;;5037591;28;19947;-63
2023/01/15 10:55:55;;;;;;;;;;;;;;;;;;5033948;28;20004;-63
2023/01/15 10:58:21;;;;;;;;;;;;;;;;;;5034351;28;19953;-64
2023/01/15 11:00:46;;;;;;;;;;;;;;;;;;5034510;28;19917;-65
2023/01/15 11:03:13;;;;;;;;;;;;;;;;;;5037685;28;19917;-64
2023/01/15 11:05:39;;;;;;;;;;;;;;;;;;5034080;28;19917;-63
2023/01/15 11:08:05;;;;;;;;;;;;;;;;;;5037606;28;19959;-64
2023/01/15 11:10:32;;;;;;;;;;;;;;;;;;5031162;28;19987;-62
2023/01/15 11:21:12;;;;;;;;;;;;;;;;;;5031975;28;19975;-64
2023/01/15 11:23:38;;;;;;;;;;;;;;;;;;5033207;28;20419;-64
2023/01/15 11:26:04;;;;;;;;;;;;;;;;;;5037981;28;19913;-64
2023/01/15 11:28:30;;;;;;;;;;;;;;;;;;5034484;28;20354;-62
2023/01/15 11:30:56;;;;;;;;;;;;;;;;;;5037272;28;19920;-63
2023/01/15 11:33:22;;;;;;;;;;;;;;;;;;5033052;28;19913;-64
2023/01/15 11:35:47;;;;;;;;;;;;;;;;;;5036414;28;19913;-66
2023/01/15 11:38:13;;;;;;;;;;;;;;;;;;5034674;28;19917;-67
2023/01/15 11:40:39;;;;;;;;;;;;;;;;;;5037886;28;20446;-66
2023/01/15 11:51:19;;;;;;;;;;;;;;;;;;5042923;28;19935;-63
2023/01/15 11:53:45;;;;;;;;;;;;;;;;;;5045235;28;19916;-64
2023/01/15 11:56:11;;;;;;;;;;;;;;;;;;5044477;28;19913;-65
2023/01/15 11:58:37;;;;;;;;;;;;;;;;;;5038318;28;20059;-65
2023/01/15 12:01:03;;;;;;;;;;;;;;;;;;5039916;28;19912;-65
2023/01/15 12:03:28;;;;;;;;;;;;;;;;;;5038500;28;19913;-64
2023/01/15 12:05:54;;;;;;;;;;;;;;;;;;5036923;28;19913;-63
2023/01/15 12:08:20;;;;;;;;;;;;;;;;;;5038503;28;20035;-65
2023/01/15 12:11:04;;;;;;;;;;;;;;;;;;5037634;28;19975;-65
2023/01/15 12:13:30;;;;;;;;;;;;;;;;;;5039984;28;19967;-62
2023/01/15 12:15:56;;;;;;;;;;;;;;;;;;5038141;28;19913;-64
2023/01/15 12:18:23;;;;;;;;;;;;;;;;;;5037304;28;19917;-64
2023/01/15 12:20:49;;;;;;;;;;;;;;;;;;5043991;28;20011;-63
2023/01/15 12:23:14;;;;;;;;;;;;;;;;;;5041867;28;20004;-66
2023/01/15 12:25:40;;;;;;;;;;;;;;;;;;5039953;28;19912;-66
2023/01/15 12:28:06;;;;;;;;;;;;;;;;;;5038777;28;19921;-66
2023/01/15 12:30:32;;;;;;;;;;;;;;;;;;5042361;28;19924;-65
2023/01/15 12:32:58;;;;;;;;;;;;;;;;;;5035893;28;19961;-63
2023/01/15 12:35:24;;;;;;;;;;;;;;;;;;5037908;28;19920;-63
2023/01/15 12:37:50;;;;;;;;;;;;;;;;;;5037035;28;19917;-65
2023/01/15 12:40:16;;;;;;;;;;;;;;;;;;5036656;28;20396;-61
2023/01/15 12:45:27;;;;;;;;;;;;;;;;;;5037668;28;19920;-62
2023/01/15 12:47:53;;;;;;;;;;;;;;;;;;5038209;28;19982;-63
2023/01/15 12:50:19;;;;;;;;;;;;;;;;;;5036249;28;19917;-61
2023/01/15 12:52:45;;;;;;;;;;;;;;;;;;5040350;28;19932;-63
2023/01/15 12:55:11;;;;;;;;;;;;;;;;;;5035552;28;19917;-63
2023/01/15 12:57:37;;;;;;;;;;;;;;;;;;5041414;28;19924;-63
2023/01/15 13:00:02;;;;;;;;;;;;;;;;;;5034520;28;19917;-61
2023/01/15 13:02:28;;;;;;;;;;;;;;;;;;5036733;28;19951;-62
2023/01/15 13:04:56;;;;;;;;;;;;;;;;;;5036410;28;20308;-63
2023/01/15 13:07:21;;;;;;;;;;;;;;;;;;5038482;28;19939;-62
2023/01/15 13:09:47;;;;;;;;;;;;;;;;;;5035733;28;19913;-62
2023/01/15 13:12:13;;;;;;;;;;;;;;;;;;5037639;28;20008;-61
2023/01/15 13:14:39;;;;;;;;;;;;;;;;;;5038770;28;19928;-62
2023/01/15 13:17:05;;;;;;;;;;;;;;;;;;5037804;28;19917;-62
2023/01/15 13:19:31;;;;;;;;;;;;;;;;;;5037874;28;20390;-61
2023/01/15 13:21:57;;;;;;;;;;;;;;;;;;5037987;28;20412;-61
2023/01/15 13:24:23;;;;;;;;;;;;;;;;;;5037024;28;19912;-64
2023/01/15 13:26:49;;;;;;;;;;;;;;;;;;5041367;28;19952;-65
2023/01/15 13:29:15;;;;;;;;;;;;;;;;;;5036868;28;19986;-64
2023/01/15 13:31:41;;;;;;;;;;;;;;;;;;5036490;28;20397;-64
2023/01/15 13:34:07;;;;;;;;;;;;;;;;;;5036786;28;19924;-64
2023/01/15 13:36:32;;;;;;;;;;;;;;;;;;5036661;28;20329;-63
2023/01/15 13:38:58;;;;;;;;;;;;;;;;;;5036012;28;20009;-63
2023/01/15 13:44:09;;;;;;;;;;;;;;;;;;5041375;28;19931;-63
2023/01/15 13:46:35;;;;;;;;;;;;;;;;;;5033925;28;19913;-65
2023/01/15 13:49:01;;;;;;;;;;;;;;;;;;5034482;28;20043;-60
2023/01/15 13:51:27;;;;;;;;;;;;;;;;;;5036612;28;20041;-64
2023/01/15 13:53:53;;;;;;;;;;;;;;;;;;5034731;28;19917;-66
2023/01/15 13:56:18;;;;;;;;;;;;;;;;;;5036506;28;19912;-64
2023/01/15 13:58:44;;;;;;;;;;;;;;;;;;5037090;28;19920;-64
2023/01/15 14:01:10;;;;;;;;;;;;;;;;;;5033274;28;20337;-64
2023/01/15 14:03:37;;;;;;;;;;;;;;;;;;5040807;28;19919;-63
2023/01/15 14:06:03;;;;;;;;;;;;;;;;;;5035035;28;19917;-65
2023/01/15 14:08:28;;;;;;;;;;;;;;;;;;5034284;28;19916;-65
2023/01/15 14:10:54;;;;;;;;;;;;;;;;;;5035683;28;19921;-65
2023/01/15 14:13:20;;;;;;;;;;;;;;;;;;5034004;28;20039;-65
2023/01/15 14:15:46;;;;;;;;;;;;;;;;;;5037575;28;19913;-64
2023/01/15 14:18:12;;;;;;;;;;;;;;;;;;5033700;28;20390;-63
2023/01/15 14:20:38;;;;;;;;;;;;;;;;;;5035720;28;19932;-64
2023/01/15 14:23:04;;;;;;;;;;;;;;;;;;5035454;28;19974;-64
2023/01/15 14:25:30;;;;;;;;;;;;;;;;;;5036853;28;19916;-64
2023/01/15 14:27:56;;;;;;;;;;;;;;;;;;5034930;28;19955;-63
2023/01/15 14:30:22;;;;;;;;;;;;;;;;;;5035076;28;19939;-66
2023/01/15 14:32:48;;;;;;;;;;;;;;;;;;5053027;28;20671;-66
2023/01/15 14:35:14;;;;;;;;;;;;;;;;;;5039737;28;19920;-65
2023/01/15 14:37:40;;;;;;;;;;;;;;;;;;5037057;28;19917;-64
2023/01/15 14:40:06;;;;;;;;;;;;;;;;;;5033656;28;19967;-63
2023/01/15 14:45:16;;;;;;;;;;;;;;;;;;5033749;28;19935;-65
2023/01/15 14:47:43;;;;;;;;;;;;;;;;;;5038112;28;20377;-64
2023/01/15 14:50:09;;;;;;;;;;;;;;;;;;5032491;28;20374;-63
2023/01/15 14:52:35;;;;;;;;;;;;;;;;;;5035584;28;19980;-65
2023/01/15 14:55:01;;;;;;;;;;;;;;;;;;5033087;28;20004;-65
2023/01/15 14:57:27;;;;;;;;;;;;;;;;;;5035712;28;19917;-63
2023/01/15 14:59:53;;;;;;;;;;;;;;;;;;5034234;28;19916;-65
2023/01/15 15:02:19;;;;;;;;;;;;;;;;;;5037112;28;19921;-64
2023/01/15 15:04:45;;;;;;;;;;;;;;;;;;5034383;28;19925;-65
2023/01/15 15:07:10;;;;;;;;;;;;;;;;;;5033272;28;20007;-64
2023/01/15 15:09:36;;;;;;;;;;;;;;;;;;5035718;28;19952;-66
2023/01/15 15:12:17;;;;;;;;;;;;;;;;;;5040794;28;19921;-65
2023/01/15 15:14:43;;;;;;;;;;;;;;;;;;5043089;28;20563;-63
2023/01/15 15:17:09;;;;;;;;;;;;;;;;;;5038593;28;20399;-65
2023/01/15 15:19:35;;;;;;;;;;;;;;;;;;5036574;28;19936;-63
2023/01/15 15:22:01;;;;;;;;;;;;;;;;;;5032632;28;20024;-65
2023/01/15 15:24:27;;;;;;;;;;;;;;;;;;5038948;28;19932;-65
2023/01/15 15:26:53;;;;;;;;;;;;;;;;;;5037436;28;19917;-65
2023/01/15 15:29:19;;;;;;;;;;;;;;;;;;5040569;28;19913;-65
2023/01/15 15:31:46;;;;;;;;;;;;;;;;;;5041251;28;19955;-65
2023/01/15 15:34:12;;;;;;;;;;;;;;;;;;5042769;28;19913;-65
2023/01/15 15:36:38;;;;;;;;;;;;;;;;;;5032716;28;19917;-64
2023/01/15 15:39:04;;;;;;;;;;;;;;;;;;5036096;28;19957;-64
2023/01/15 15:49:44;;;;;;;;;;;;;;;;;;5034191;28;19920;-63
2023/01/15 15:52:10;;;;;;;;;;;;;;;;;;5034165;28;19924;-64
2023/01/15 15:54:36;;;;;;;;;;;;;;;;;;5032683;28;19924;-64
2023/01/15 15:57:02;;;;;;;;;;;;;;;;;;5032929;28;19941;-64
2023/01/15 15:59:28;;;;;;;;;;;;;;;;;;5032891;28;19928;-64
2023/01/15 16:01:54;;;;;;;;;;;;;;;;;;5036311;28;19913;-63
2023/01/15 16:04:20;;;;;;;;;;;;;;;;;;5034427;28;19935;-63
2023/01/15 16:06:47;;;;;;;;;;;;;;;;;;5041152;28;20011;-64
2023/01/15 16:09:13;;;;;;;;;;;;;;;;;;5037005;28;19909;-64
2023/01/15 16:11:39;;;;;;;;;;;;;;;;;;5034169;28;20054;-65
2023/01/15 16:14:05;;;;;;;;;;;;;;;;;;5032871;28;19919;-63
2023/01/15 16:16:31;;;;;;;;;;;;;;;;;;5037574;28;19917;-63
2023/01/15 16:18:57;;;;;;;;;;;;;;;;;;5042947;28;19999;-65
2023/01/15 16:21:22;;;;;;;;;;;;;;;;;;5040182;28;19925;-64
2023/01/15 16:23:48;;;;;;;;;;;;;;;;;;5044386;28;20369;-63
2023/01/15 16:26:14;;;;;;;;;;;;;;;;;;5043628;28;19980;-64
2023/01/15 16:28:43;;;;;;;;;;;;;;;;;;5044867;28;19916;-65
2023/01/15 16:31:09;;;;;;;;;;;;;;;;;;5047154;28;19913;-65
2023/01/15 16:33:35;;;;;;;;;;;;;;;;;;5045535;28;19920;-63
2023/01/15 16:36:03;;;;;;;;;;;;;;;;;;5049744;28;20279;-64
2023/01/15 16:38:29;;;;;;;;;;;;;;;;;;5042085;28;19916;-64
2023/01/15 16:40:55;;;;;;;;;;;;;;;;;;5038559;28;19923;-64
2023/01/15 16:43:21;;;;;;;;;;;;;;;;;;5030870;28;20429;-64
2023/01/15 16:45:47;;;;;;;;;;;;;;;;;;5048209;28;19913;-64
2023/01/15 16:48:17;;;;;;;;;;;;;;;;;;5034081;28;19967;-64
2023/01/15 16:50:43;;;;;;;;;;;;;;;;;;5031405;28;19916;-64
2023/01/15 16:53:09;;;;;;;;;;;;;;;;;;5031839;28;19917;-65
2023/01/15 16:55:35;;;;;;;;;;;;;;;;;;5042241;28;19936;-61
2023/01/15 16:58:01;;;;;;;;;;;;;;;;;;5034783;28;19913;-62
2023/01/15 17:00:29;;;;;;;;;;;;;;;;;;5031032;28;19967;-62
2023/01/15 17:02:55;;;;;;;;;;;;;;;;;;5030964;28;20020;-64
2023/01/15 17:05:21;;;;;;;;;;;;;;;;;;5033520;28;20028;-64
2023/01/15 17:07:47;;;;;;;;;;;;;;;;;;5047757;28;19924;-61
2023/01/15 17:10:13;;;;;;;;;;;;;;;;;;5040246;28;20282;-64
2023/01/15 17:12:38;;;;;;;;;;;;;;;;;;5030766;28;20838;-63
2023/01/15 17:15:04;;;;;;;;;;;;;;;;;;5037680;28;19920;-63
2023/01/15 17:17:30;;;;;;;;;;;;;;;;;;5047264;28;20349;-62
2023/01/15 17:19:56;;;;;;;;;;;;;;;;;;5041849;28;19917;-64
2023/01/15 17:22:22;;;;;;;;;;;;;;;;;;5045051;28;20227;-64
2023/01/15 17:24:48;;;;;;;;;;;;;;;;;;5043384;28;19920;-64
2023/01/15 17:27:14;;;;;;;;;;;;;;;;;;5040746;28;19912;-63
2023/01/15 17:29:40;;;;;;;;;;;;;;;;;;5041431;28;19967;-63
2023/01/15 17:32:06;;;;;;;;;;;;;;;;;;5039331;28;20667;-64
2023/01/15 17:34:32;;;;;;;;;;;;;;;;;;5030644;28;19920;-64
2023/01/15 17:36:58;;;;;;;;;;;;;;;;;;5034764;28;19920;-64
2023/01/15 17:39:24;;;;;;;;;;;;;;;;;;5030212;28;19913;-64
2023/01/15 17:41:50;;;;;;;;;;;;;;;;;;5030571;28;20285;-61
2023/01/15 17:44:15;;;;;;;;;;;;;;;;;;5030534;28;19913;-64
2023/01/15 17:46:41;;;;;;;;;;;;;;;;;;5030736;28;20381;-63
2023/01/15 17:49:07;;;;;;;;;;;;;;;;;;5030388;28;19913;-64
2023/01/15 17:51:33;;;;;;;;;;;;;;;;;;5033637;28;20396;-64
2023/01/15 17:53:59;;;;;;;;;;;;;;;;;;5032658;28;19913;-65
2023/01/15 18:07:08;;;;;;;;;;;;;;;;;;5031422;28;19965;-64
2023/01/15 18:09:34;;;;;;;;;;;;;;;;;;5031543;28;19913;-64
2023/01/15 18:12:00;;;;;;;;;;;;;;;;;;5030071;28;19965;-64
2023/01/15 18:14:26;;;;;;;;;;;;;;;;;;5046942;28;19913;-65
2023/01/15 18:16:52;;;;;;;;;;;;;;;;;;5048912;28;19939;-64
2023/01/15 18:19:17;;;;;;;;;;;;;;;;;;5048562;28;19954;-63
2023/01/15 18:21:43;;;;;;;;;;;;;;;;;;5048745;28;19921;-65
2023/01/15 18:24:10;;;;;;;;;;;;;;;;;;5048909;28;19920;-64
2023/01/15 18:26:37;;;;;;;;;;;;;;;;;;5048904;28;19913;-65
2023/01/15 18:29:03;;;;;;;;;;;;;;;;;;5048071;28;20316;-66
2023/01/15 18:31:29;;;;;;;;;;;;;;;;;;5048204;28;19924;-64
2023/01/15 18:33:54;;;;;;;;;;;;;;;;;;5048524;28;19912;-67
2023/01/15 18:36:20;;;;;;;;;;;;;;;;;;5046909;28;19956;-67
2023/01/15 18:38:47;;;;;;;;;;;;;;;;;;5029935;28;19921;-66
2023/01/15 18:46:44;;;;;;;;;;;;;;;;;;5045853;28;19943;-67
2023/01/15 18:49:10;;;;;;;;;;;;;;;;;;5045163;28;19920;-67
2023/01/15 18:51:36;;;;;;;;;;;;;;;;;;5045403;28;19920;-67
2023/01/15 18:54:04;;;;;;;;;;;;;;;;;;5046231;28;20317;-68
2023/01/15 18:56:39;;;;;;;;;;;;;;;;;;5046488;28;19920;-66
2023/01/15 18:59:04;;;;;;;;;;;;;;;;;;5046817;28;19916;-66
2023/01/15 19:01:30;;;;;;;;;;;;;;;;;;5045905;28;20262;-67
2023/01/15 19:03:57;;;;;;;;;;;;;;;;;;5045973;28;19913;-68
2023/01/15 19:06:23;;;;;;;;;;;;;;;;;;5045461;28;19913;-67
2023/01/15 19:08:49;;;;;;;;;;;;;;;;;;5046062;28;20004;-67
2023/01/15 19:11:15;;;;;;;;;;;;;;;;;;5044987;28;20374;-69
2023/01/15 19:13:41;;;;;;;;;;;;;;;;;;5045075;28;19917;-66
2023/01/15 19:18:54;;;;;;;;;;;;;;;;;;5045887;28;20038;-67
2023/01/15 19:21:19;;;;;;;;;;;;;;;;;;5041551;28;19964;-66
2023/01/15 19:23:45;;;;;;;;;;;;;;;;;;5047352;28;20026;-68
2023/01/15 19:26:11;;;;;;;;;;;;;;;;;;5047712;28;19916;-66
2023/01/15 19:28:37;;;;;;;;;;;;;;;;;;5029263;28;20328;-66
2023/01/15 19:33:48;;;;;;;;;;;;;;;;;;5028343;28;19920;-64
2023/01/15 19:36:14;;;;;;;;;;;;;;;;;;5028972;28;20542;-65
2023/01/15 19:38:40;;;;;;;;;;;;;;;;;;5036299;28;19948;-63
2023/01/15 19:50:17;;;;;;;;;;;;;;;;;;5047559;28;20377;-66
2023/01/15 19:54:54;;;;;;;;;;;;;;;;;;5028853;28;19920;-66
2023/01/15 19:57:20;;;;;;;;;;;;;;;;;;5028636;28;20493;-66
2023/01/15 19:59:46;;;;;;;;;;;;;;;;;;5034879;28;20003;-66
2023/01/15 20:02:12;;;;;;;;;;;;;;;;;;5028960;28;19909;-65
2023/01/15 20:04:38;;;;;;;;;;;;;;;;;;5031068;28;20618;-67
2023/01/15 20:07:04;;;;;;;;;;;;;;;;;;5034734;28;19910;-67
2023/01/15 20:09:30;;;;;;;;;;;;;;;;;;5039506;28;20374;-67
2023/01/15 20:14:40;;;;;;;;;;;;;;;;;;5032361;28;19920;-64
2023/01/15 20:17:06;;;;;;;;;;;;;;;;;;5032209;28;19913;-64
2023/01/15 20:19:32;;;;;;;;;;;;;;;;;;5034130;28;20301;-64
2023/01/15 20:21:58;;;;;;;;;;;;;;;;;;5036328;28;20373;-66
2023/01/15 20:24:24;;;;;;;;;;;;;;;;;;5050487;28;19996;-64
2023/01/15 20:26:50;;;;;;;;;;;;;;;;;;5051722;28;19916;-65
2023/01/15 20:29:16;;;;;;;;;;;;;;;;;;5051243;28;20462;-66
2023/01/15 20:31:41;;;;;;;;;;;;;;;;;;5050320;28;19928;-65
2023/01/15 20:34:07;;;;;;;;;;;;;;;;;;5050915;28;20684;-65
2023/01/15 20:36:34;;;;;;;;;;;;;;;;;;5045771;28;19944;-67
2023/01/15 20:39:00;;;;;;;;;;;;;;;;;;5036176;28;19916;-66
2023/01/15 20:46:55;;;;;;;;;;;;;;;;;;5050600;28;19959;-66
2023/01/15 20:49:25;;;;;;;;;;;;;;;;;;5050727;28;19956;-66
2023/01/15 20:51:51;;;;;;;;;;;;;;;;;;5048006;28;20048;-65
2023/01/15 20:54:17;;;;;;;;;;;;;;;;;;5036334;28;20028;-66
2023/01/15 20:56:43;;;;;;;;;;;;;;;;;;5031264;28;20449;-65
2023/01/15 20:59:09;;;;;;;;;;;;;;;;;;5031349;28;19920;-66
2023/01/15 21:01:35;;;;;;;;;;;;;;;;;;5030859;28;20333;-65
2023/01/15 21:04:01;;;;;;;;;;;;;;;;;;5031975;28;19947;-65
2023/01/15 21:06:27;;;;;;;;;;;;;;;;;;5031134;28;20412;-65
2023/01/15 21:08:53;;;;;;;;;;;;;;;;;;5031749;28;19917;-65
2023/01/15 21:11:18;;;;;;;;;;;;;;;;;;5031197;28;19925;-65
2023/01/15 21:13:45;;;;;;;;;;;;;;;;;;5046535;28;20373;-65
2023/01/15 21:16:11;;;;;;;;;;;;;;;;;;5049025;28;19912;-65
2023/01/15 21:18:39;;;;;;;;;;;;;;;;;;5049903;28;19962;-64
2023/01/15 21:21:05;;;;;;;;;;;;;;;;;;5037292;28;20290;-65
2023/01/15 21:23:31;;;;;;;;;;;;;;;;;;5030895;28;19963;-64
2023/01/15 21:25:57;;;;;;;;;;;;;;;;;;5035698;28;19909;-63
2023/01/15 21:28:23;;;;;;;;;;;;;;;;;;5049884;28;19909;-64
2023/01/15 21:30:49;;;;;;;;;;;;;;;;;;5044785;28;19914;-63
2023/01/15 21:33:15;;;;;;;;;;;;;;;;;;5030912;28;19924;-63
2023/01/15 21:35:41;;;;;;;;;;;;;;;;;;5048294;28;19913;-63
2023/01/15 21:38:07;;;;;;;;;;;;;;;;;;5033108;28;19952;-62
2023/01/15 21:40:32;;;;;;;;;;;;;;;;;;5043362;28;19955;-62